createdAt,value
2019-06-07T00:01:00.147Z,100.00
2019-06-07T00:03:30.417Z,100.00
2019-06-07T00:05:59.816Z,100.00
2019-06-07T00:08:29.604Z,100.00
2019-06-07T00:10:58.809Z,100.00
2019-06-07T00:13:28.039Z,100.00
2019-06-07T00:15:57.121Z,100.00
2019-06-07T00:18:26.393Z,100.00
2019-06-07T00:20:56.703Z,100.00
2019-06-07T00:23:25.983Z,100.00
2019-06-07T00:25:55.170Z,100.00
2019-06-07T00:28:24.509Z,100.00
2019-06-07T00:30:54.076Z,100.00
2019-06-07T00:33:24.736Z,100.00
2019-06-07T00:35:54.220Z,100.00
2019-06-07T00:38:23.341Z,100.00
2019-06-07T00:40:52.453Z,100.00
2019-06-07T00:43:27.926Z,100.00
2019-06-07T00:45:52.566Z,100.00
2019-06-07T00:48:31.320Z,100.00
2019-06-07T00:50:52.618Z,100.00
2019-06-07T00:53:31.240Z,100.00
2019-06-07T00:55:52.729Z,100.00
2019-06-07T00:58:27.510Z,100.00
2019-06-07T01:00:52.765Z,100.00
2019-06-07T01:03:25.296Z,100.00
2019-06-07T01:05:52.797Z,100.00
2019-06-07T01:08:25.753Z,100.00
2019-06-07T01:10:54.287Z,100.00
2019-06-07T01:13:26.493Z,100.00
2019-06-07T01:15:54.556Z,100.00
2019-06-07T01:18:37.898Z,100.00
2019-06-07T01:20:54.676Z,100.00
2019-06-07T01:23:59.450Z,100.00
2019-06-07T01:25:54.661Z,100.00
2019-06-07T01:28:26.419Z,100.00
2019-06-07T01:30:54.766Z,100.00
2019-06-07T01:33:39.666Z,100.00
2019-06-07T01:35:54.790Z,100.00
2019-06-07T01:38:25.028Z,100.00
2019-06-07T01:40:54.823Z,100.00
2019-06-07T01:43:27.086Z,100.00
2019-06-07T01:45:54.932Z,100.00
2019-06-07T01:48:29.552Z,100.00
2019-06-07T01:50:54.962Z,100.00
2019-06-07T01:53:25.917Z,100.00
2019-06-07T01:55:55.114Z,100.00
2019-06-07T01:58:27.378Z,100.00
2019-06-07T02:00:55.496Z,100.00
2019-06-07T02:03:28.072Z,100.00
2019-06-07T02:05:55.618Z,100.00
2019-06-07T02:08:27.239Z,100.00
2019-06-07T02:10:55.727Z,100.00
2019-06-07T02:13:27.855Z,100.00
2019-06-07T02:15:55.889Z,100.00
2019-06-07T02:18:28.079Z,100.00
2019-06-07T02:20:55.986Z,100.00
2019-06-07T02:23:30.353Z,100.00
2019-06-07T02:25:56.069Z,100.00
2019-06-07T02:28:34.654Z,100.00
2019-06-07T02:31:00.193Z,100.00
2019-06-07T02:33:33.510Z,100.00
2019-06-07T02:35:57.905Z,100.00
2019-06-07T02:38:29.688Z,100.00
2019-06-07T02:40:58.084Z,100.00
2019-06-07T02:43:28.370Z,100.00
2019-06-07T02:46:21.335Z,100.00
2019-06-07T02:48:35.265Z,100.00
2019-06-07T02:50:59.769Z,100.00
2019-06-07T02:53:30.793Z,100.00
2019-06-07T02:56:34.903Z,100.00
2019-06-07T02:58:37.228Z,100.00
2019-06-07T03:01:08.413Z,100.00
2019-06-07T03:03:35.986Z,100.00
2019-06-07T03:06:04.072Z,100.00
2019-06-07T03:08:36.587Z,100.00
2019-06-07T03:11:06.014Z,100.00
2019-06-07T03:13:40.802Z,100.00
2019-06-07T03:16:10.669Z,100.00
2019-06-07T03:18:54.846Z,100.00
2019-06-07T03:21:27.800Z,100.00
2019-06-07T03:23:57.392Z,100.00
2019-06-07T03:26:27.815Z,100.00
2019-06-07T03:28:58.194Z,100.00
2019-06-07T03:31:31.399Z,100.00
2019-06-07T03:33:58.346Z,100.00
2019-06-07T03:36:27.582Z,100.00
2019-06-07T03:38:56.747Z,100.00
2019-06-07T03:41:28.324Z,100.00
2019-06-07T03:43:56.668Z,100.00
2019-06-07T03:46:27.245Z,100.00
2019-06-07T03:48:56.497Z,100.00
2019-06-07T03:51:27.382Z,100.00
2019-06-07T03:53:56.454Z,100.00
2019-06-07T03:56:25.660Z,100.00
2019-06-07T03:58:54.698Z,100.00
2019-06-07T04:01:23.810Z,100.00
2019-06-07T04:03:52.838Z,100.00
2019-06-07T04:06:21.970Z,100.00
2019-06-07T04:08:51.154Z,100.00
2019-06-07T04:11:20.370Z,100.00
2019-06-07T04:13:49.481Z,100.00
2019-06-07T04:16:18.690Z,100.00
2019-06-07T04:18:47.875Z,100.00
2019-06-07T04:21:17.028Z,100.00
2019-06-07T04:23:46.146Z,100.00
2019-06-07T04:26:15.253Z,100.00
2019-06-07T04:31:15.213Z,100.00
2019-06-07T04:33:44.347Z,100.00
2019-06-07T04:36:14.401Z,100.00
2019-06-07T04:38:43.902Z,100.00
2019-06-07T04:41:14.106Z,100.00
2019-06-07T04:43:43.918Z,100.00
2019-06-07T04:46:13.706Z,100.00
2019-06-07T04:48:45.579Z,100.00
2019-06-07T04:51:15.639Z,100.00
2019-06-07T04:53:44.794Z,100.00
2019-06-07T04:56:13.888Z,100.00
2019-06-07T04:58:43.147Z,100.00
2019-06-07T05:01:26.668Z,100.00
2019-06-07T05:03:44.262Z,100.00
2019-06-07T05:06:13.743Z,100.00
2019-06-07T05:08:43.950Z,100.00
2019-06-07T05:11:13.279Z,100.00
2019-06-07T05:13:43.794Z,100.00
2019-06-07T05:16:13.403Z,100.00
2019-06-07T05:18:43.240Z,100.00
2019-06-07T05:21:12.605Z,100.00
2019-06-07T05:24:05.934Z,100.00
2019-06-07T05:26:13.085Z,100.00
2019-06-07T05:28:43.154Z,100.00
2019-06-07T05:31:12.769Z,100.00
2019-06-07T05:33:43.609Z,100.00
2019-06-07T05:36:12.939Z,100.00
2019-06-07T05:38:44.812Z,99.72
2019-06-07T05:41:12.975Z,100.00
2019-06-07T05:43:49.491Z,100.00
2019-06-07T05:46:12.951Z,100.00
2019-06-07T05:48:43.786Z,100.00
2019-06-07T05:51:12.771Z,100.00
2019-06-07T05:53:44.739Z,100.00
2019-06-07T05:56:13.662Z,100.00
2019-06-07T05:58:44.619Z,100.00
2019-06-07T06:01:42.189Z,100.00
2019-06-07T06:03:48.162Z,100.00
2019-06-07T06:06:15.713Z,100.00
2019-06-07T06:08:47.578Z,100.00
2019-06-07T06:11:15.757Z,98.85
2019-06-07T06:14:05.672Z,98.73
2019-06-07T06:16:15.796Z,97.62
2019-06-07T06:18:47.190Z,96.97
2019-06-07T06:21:19.629Z,96.60
2019-06-07T06:23:50.742Z,96.36
2019-06-07T06:26:17.617Z,94.08
2019-06-07T06:28:46.741Z,95.56
2019-06-07T06:31:16.319Z,95.56
2019-06-07T06:33:47.473Z,91.01
2019-06-07T06:38:51.547Z,90.38
2019-06-07T06:41:21.127Z,86.55
2019-06-07T06:43:52.614Z,87.03
2019-06-07T06:46:38.058Z,86.49
2019-06-07T06:48:55.125Z,86.07
2019-06-07T06:51:22.981Z,83.75
2019-06-07T06:53:52.596Z,84.77
2019-06-07T06:56:21.776Z,85.71
2019-06-07T07:01:25.747Z,83.44
2019-06-07T07:04:11.370Z,83.30
2019-06-07T07:06:27.144Z,82.28
2019-06-07T07:08:57.997Z,81.63
2019-06-07T07:11:27.096Z,81.66
2019-06-07T07:13:57.152Z,80.34
2019-06-07T07:16:26.380Z,81.83
2019-06-07T07:18:55.525Z,79.97
2019-06-07T07:21:24.701Z,79.33
2019-06-07T07:24:19.035Z,80.88
2019-06-07T07:26:24.809Z,81.21
2019-06-07T07:28:57.129Z,81.21
2019-06-07T07:31:24.903Z,84.21
2019-06-07T07:36:38.780Z,83.00
2019-06-07T07:39:03.496Z,80.35
2019-06-07T07:41:26.682Z,78.53
2019-06-07T07:44:05.411Z,77.71
2019-06-07T07:46:29.728Z,79.51
2019-06-07T07:48:58.115Z,82.82
2019-06-07T07:51:27.240Z,80.06
2019-06-07T07:54:09.682Z,81.89
2019-06-07T07:56:27.291Z,79.52
2019-06-07T07:59:01.638Z,80.30
2019-06-07T08:01:27.331Z,79.93
2019-06-07T08:03:56.986Z,79.00
2019-06-07T08:06:26.606Z,76.55
2019-06-07T08:08:57.084Z,77.46
2019-06-07T08:11:26.372Z,73.68
2019-06-07T08:13:58.500Z,72.21
2019-06-07T08:16:26.329Z,73.41
2019-06-07T08:19:00.326Z,75.34
2019-06-07T08:21:27.245Z,73.78
2019-06-07T08:24:00.730Z,72.23
2019-06-07T08:26:27.525Z,72.23
2019-06-07T08:28:59.729Z,72.52
2019-06-07T08:31:27.672Z,74.61
2019-06-07T08:33:58.896Z,73.13
2019-06-07T08:36:41.324Z,73.13
2019-06-07T08:39:07.015Z,74.08
2019-06-07T08:41:29.616Z,74.08
2019-06-07T08:44:02.650Z,70.71
2019-06-07T08:46:30.165Z,70.25
2019-06-07T08:49:04.243Z,71.61
2019-06-07T08:51:31.467Z,71.61
2019-06-07T08:54:21.091Z,71.19
2019-06-07T08:56:31.555Z,69.93
2019-06-07T08:59:10.823Z,70.66
2019-06-07T09:01:31.496Z,71.94
2019-06-07T09:04:07.657Z,68.96
2019-06-07T09:09:05.193Z,70.10
2019-06-07T09:11:33.378Z,71.18
2019-06-07T09:14:08.706Z,69.62
2019-06-07T09:16:33.494Z,70.10
2019-06-07T09:19:06.686Z,70.10
2019-06-07T09:21:33.601Z,67.97
2019-06-07T09:24:08.820Z,67.01
2019-06-07T09:26:33.792Z,67.90
2019-06-07T09:29:08.363Z,67.31
2019-06-07T09:31:52.046Z,70.65
2019-06-07T09:34:11.778Z,67.62
2019-06-07T09:36:36.571Z,67.64
2019-06-07T09:39:10.055Z,64.23
2019-06-07T09:41:47.781Z,62.58
2019-06-07T09:44:21.522Z,64.05
2019-06-07T09:46:40.038Z,64.13
2019-06-07T09:49:18.224Z,64.13
2019-06-07T09:51:40.388Z,63.18
2019-06-07T09:54:11.515Z,62.83
2019-06-07T09:56:40.401Z,62.45
2019-06-07T09:59:12.500Z,61.25
2019-06-07T10:01:40.396Z,60.25
2019-06-07T10:04:28.118Z,60.25
2019-06-07T10:06:40.417Z,58.86
2019-06-07T10:11:40.500Z,57.56
2019-06-07T10:14:09.727Z,54.29
2019-06-07T10:16:46.469Z,54.57
2019-06-07T10:19:10.056Z,53.25
2019-06-07T10:21:39.302Z,55.71
2019-06-07T10:24:09.624Z,54.37
2019-06-07T10:26:38.969Z,54.37
2019-06-07T10:29:09.084Z,53.72
2019-06-07T10:31:39.073Z,54.06
2019-06-07T10:34:08.499Z,52.34
2019-06-07T10:36:38.069Z,52.91
2019-06-07T10:39:09.102Z,53.09
2019-06-07T10:41:38.333Z,53.88
2019-06-07T10:44:07.614Z,52.57
2019-06-07T10:46:36.714Z,51.80
2019-06-07T10:49:06.184Z,51.80
2019-06-07T10:51:35.387Z,51.88
2019-06-07T10:54:11.300Z,51.87
2019-06-07T10:56:35.510Z,50.35
2019-06-07T10:59:05.215Z,52.74
2019-06-07T11:01:34.486Z,48.73
2019-06-07T11:04:03.653Z,48.73
2019-06-07T11:06:32.909Z,49.00
2019-06-07T11:09:02.038Z,50.98
2019-06-07T11:11:31.241Z,50.37
2019-06-07T11:14:00.455Z,49.84
2019-06-07T11:16:29.629Z,49.86
2019-06-07T11:18:58.742Z,50.41
2019-06-07T11:21:27.855Z,49.62
2019-06-07T11:23:57.087Z,49.62
2019-06-07T11:26:26.275Z,51.71
2019-06-07T11:28:55.418Z,49.35
2019-06-07T11:31:26.362Z,47.78
2019-06-07T11:33:55.919Z,49.34
2019-06-07T11:36:25.101Z,49.57
2019-06-07T11:38:54.315Z,50.63
2019-06-07T11:41:23.484Z,48.70
2019-06-07T11:43:52.786Z,48.70
2019-06-07T11:46:22.172Z,48.92
2019-06-07T11:48:51.314Z,50.22
2019-06-07T11:51:20.423Z,48.54
2019-06-07T11:53:49.627Z,47.21
2019-06-07T11:56:18.738Z,49.19
2019-06-07T11:58:47.934Z,46.27
2019-06-07T12:01:18.669Z,47.73
2019-06-07T12:03:48.026Z,47.73
2019-06-07T12:06:18.115Z,45.87
2019-06-07T12:08:47.264Z,48.90
2019-06-07T12:11:16.606Z,46.24
2019-06-07T12:13:45.801Z,48.45
2019-06-07T12:16:15.383Z,49.34
2019-06-07T12:18:44.636Z,46.47
2019-06-07T12:21:13.813Z,46.21
2019-06-07T12:23:43.000Z,46.21
2019-06-07T12:26:12.359Z,47.44
2019-06-07T12:28:41.500Z,47.44
2019-06-07T12:31:10.906Z,46.48
2019-06-07T12:33:40.252Z,47.68
2019-06-07T12:36:09.472Z,47.14
2019-06-07T12:38:38.775Z,44.51
2019-06-07T12:41:07.987Z,43.88
2019-06-07T12:43:37.187Z,44.50
2019-06-07T12:46:06.365Z,43.77
2019-06-07T12:48:35.560Z,44.83
2019-06-07T12:51:04.882Z,44.83
2019-06-07T12:53:34.014Z,45.16
2019-06-07T12:56:03.194Z,43.96
2019-06-07T12:58:37.262Z,44.09
2019-06-07T13:01:03.385Z,45.25
2019-06-07T13:03:32.524Z,46.02
2019-06-07T13:06:01.736Z,46.02
2019-06-07T13:08:30.925Z,49.78
2019-06-07T13:11:14.002Z,48.66
2019-06-07T13:13:31.029Z,47.98
2019-06-07T13:16:00.220Z,46.83
2019-06-07T13:18:33.040Z,47.38
2019-06-07T13:21:02.255Z,48.03
2019-06-07T13:23:31.420Z,48.63
2019-06-07T13:26:00.592Z,50.62
2019-06-07T13:28:29.796Z,50.62
2019-06-07T13:30:58.982Z,49.88
2019-06-07T13:33:35.337Z,51.72
2019-06-07T13:35:59.078Z,50.30
2019-06-07T13:38:29.130Z,49.60
2019-06-07T13:40:58.504Z,51.10
2019-06-07T13:43:28.200Z,49.85
2019-06-07T13:45:57.530Z,50.08
2019-06-07T13:48:27.836Z,52.24
2019-06-07T13:50:57.644Z,49.51
2019-06-07T13:53:27.246Z,50.51
2019-06-07T13:55:56.286Z,50.53
2019-06-07T13:58:26.467Z,50.53
2019-06-07T14:00:55.800Z,50.47
2019-06-07T14:03:29.262Z,52.21
2019-06-07T14:05:56.199Z,52.03
2019-06-07T14:08:25.405Z,52.79
2019-06-07T14:10:54.685Z,53.59
2019-06-07T14:13:25.731Z,52.04
2019-06-07T14:15:55.507Z,53.63
2019-06-07T14:18:24.784Z,52.98
2019-06-07T14:20:54.491Z,51.86
2019-06-07T14:23:42.321Z,51.55
2019-06-07T14:25:55.141Z,52.74
2019-06-07T14:28:30.858Z,52.83
2019-06-07T14:30:59.972Z,52.89
2019-06-07T14:33:30.646Z,53.78
2019-06-07T14:36:00.501Z,53.89
2019-06-07T14:38:33.793Z,54.45
2019-06-07T14:41:00.838Z,54.53
2019-06-07T14:43:31.601Z,54.28
2019-06-07T14:46:01.080Z,55.01
2019-06-07T14:48:30.488Z,55.75
2019-06-07T14:51:00.535Z,55.57
2019-06-07T14:53:30.873Z,54.64
2019-06-07T14:56:02.681Z,55.18
2019-06-07T14:58:38.086Z,55.73
2019-06-07T15:01:05.467Z,56.11
2019-06-07T15:03:34.862Z,56.37
2019-06-07T15:06:04.135Z,56.01
2019-06-07T15:08:34.797Z,55.21
2019-06-07T15:14:37.655Z,55.96
2019-06-07T15:17:07.617Z,56.57
2019-06-07T15:19:36.875Z,55.42
2019-06-07T15:22:08.198Z,56.24
2019-06-07T15:24:39.406Z,55.68
2019-06-07T15:27:13.103Z,57.22
2019-06-07T15:29:43.672Z,56.53
2019-06-07T15:32:14.919Z,57.87
2019-06-07T15:34:44.109Z,65.40
2019-06-07T15:37:13.218Z,70.12
2019-06-07T15:39:42.470Z,72.50
2019-06-07T15:42:15.275Z,73.72
2019-06-07T15:44:45.379Z,73.84
2019-06-07T15:47:14.518Z,75.35
2019-06-07T15:49:44.732Z,78.13
2019-06-07T15:52:13.965Z,79.71
2019-06-07T15:54:43.125Z,81.84
2019-06-07T15:57:12.694Z,80.35
2019-06-07T15:59:41.887Z,82.08
2019-06-07T16:02:10.984Z,83.83
2019-06-07T16:04:42.135Z,85.03
2019-06-07T16:07:12.106Z,83.50
2019-06-07T16:09:42.751Z,85.45
2019-06-07T16:12:14.549Z,83.37
2019-06-07T16:14:43.751Z,83.37
2019-06-07T16:17:12.927Z,87.10
2019-06-07T16:19:46.015Z,84.52
2019-06-07T16:22:13.028Z,83.37
2019-06-07T16:24:42.207Z,83.14
2019-06-07T16:27:11.859Z,83.14
2019-06-07T16:29:40.995Z,79.30
2019-06-07T16:32:11.532Z,79.42
2019-06-07T16:34:41.830Z,79.47
2019-06-07T16:37:11.858Z,78.52
2019-06-07T16:39:42.293Z,76.91
2019-06-07T16:42:13.181Z,76.32
2019-06-07T16:44:42.676Z,76.40
2019-06-07T16:47:12.167Z,76.40
2019-06-07T16:49:42.870Z,75.82
2019-06-07T16:52:12.232Z,73.67
2019-06-07T16:54:41.562Z,73.95
2019-06-07T16:57:16.524Z,72.85
2019-06-07T16:59:49.201Z,73.35
2019-06-07T17:02:18.363Z,73.45
2019-06-07T17:04:55.040Z,72.05
2019-06-07T17:07:24.231Z,71.17
2019-06-07T17:09:54.276Z,71.80
2019-06-07T17:12:23.404Z,73.55
2019-06-07T17:14:52.591Z,73.55
2019-06-07T17:17:21.912Z,81.29
2019-06-07T17:19:51.036Z,83.73
2019-06-07T17:22:20.615Z,90.05
2019-06-07T17:24:50.878Z,89.91
2019-06-07T17:27:20.063Z,87.83
2019-06-07T17:29:50.118Z,87.69
2019-06-07T17:32:19.357Z,89.33
2019-06-07T17:34:48.477Z,90.73
2019-06-07T17:37:17.666Z,90.73
2019-06-07T17:39:46.879Z,88.03
2019-06-07T17:42:16.001Z,86.91
2019-06-07T17:44:45.188Z,86.33
2019-06-07T17:47:14.226Z,86.94
2019-06-07T17:49:44.231Z,87.51
2019-06-07T17:52:13.583Z,87.36
2019-06-07T17:54:43.791Z,86.57
2019-06-07T17:57:13.387Z,86.55
2019-06-07T17:59:42.577Z,86.02
2019-06-07T18:02:15.275Z,87.45
2019-06-07T18:04:43.144Z,86.65
2019-06-07T18:07:13.394Z,86.87
2019-06-07T18:09:43.363Z,85.84
2019-06-07T18:12:12.540Z,85.34
2019-06-07T18:14:41.711Z,85.32
2019-06-07T18:17:10.888Z,85.97
2019-06-07T18:19:40.814Z,84.75
2019-06-07T18:22:09.996Z,84.94
2019-06-07T18:24:42.774Z,83.23
2019-06-07T18:27:12.068Z,82.55
2019-06-07T18:29:41.249Z,82.40
2019-06-07T18:32:13.397Z,81.15
2019-06-07T18:34:41.118Z,82.28
2019-06-07T18:37:10.213Z,81.47
2019-06-07T18:39:39.286Z,81.47
2019-06-07T18:42:08.407Z,80.24
2019-06-07T18:44:37.520Z,79.91
2019-06-07T18:47:06.706Z,79.91
2019-06-07T18:49:36.201Z,79.39
2019-06-07T18:52:14.681Z,78.99
2019-06-07T18:54:43.997Z,77.08
2019-06-07T18:57:13.212Z,77.08
2019-06-07T18:59:42.240Z,77.41
2019-06-07T19:02:12.053Z,76.24
2019-06-07T19:04:41.244Z,76.28
2019-06-07T19:07:10.416Z,76.28
2019-06-07T19:09:39.613Z,76.92
2019-06-07T19:12:08.737Z,77.00
2019-06-07T19:14:37.946Z,76.76
2019-06-07T19:17:07.214Z,76.75
2019-06-07T19:19:36.326Z,75.88
2019-06-07T19:22:05.505Z,75.99
2019-06-07T19:24:34.809Z,75.77
2019-06-07T19:27:04.451Z,76.92
2019-06-07T19:29:33.621Z,76.47
2019-06-07T19:32:03.481Z,76.47
2019-06-07T19:34:33.509Z,76.39
2019-06-07T19:37:05.088Z,76.25
2019-06-07T19:39:34.716Z,76.55
2019-06-07T19:42:04.307Z,76.61
2019-06-07T19:44:34.203Z,76.71
2019-06-07T19:47:03.548Z,77.07
2019-06-07T19:49:32.693Z,77.00
2019-06-07T19:52:03.224Z,77.62
2019-06-07T19:54:34.179Z,77.49
2019-06-07T19:57:03.748Z,77.49
2019-06-07T19:59:33.284Z,77.63
2019-06-07T20:02:04.067Z,77.76
2019-06-07T20:04:33.606Z,77.96
2019-06-07T20:07:03.930Z,78.24
2019-06-07T20:09:33.883Z,78.62
2019-06-07T20:12:03.132Z,78.40
2019-06-07T20:14:32.324Z,78.40
2019-06-07T20:17:05.546Z,78.11
2019-06-07T20:19:33.633Z,78.11
2019-06-07T20:22:03.182Z,78.30
2019-06-07T20:24:32.437Z,78.30
2019-06-07T20:27:02.347Z,79.43
2019-06-07T20:29:31.571Z,78.39
2019-06-07T20:32:00.867Z,78.01
2019-06-07T20:34:30.076Z,77.30
2019-06-07T20:37:00.211Z,77.05
2019-06-07T20:39:29.473Z,77.07
2019-06-07T20:41:59.537Z,76.87
2019-06-07T20:44:29.055Z,76.98
2019-06-07T20:46:58.197Z,77.70
2019-06-07T20:49:27.373Z,76.72
2019-06-07T20:51:56.488Z,76.20
2019-06-07T20:54:25.707Z,77.54
2019-06-07T20:56:55.180Z,77.19
2019-06-07T20:59:24.300Z,77.22
2019-06-07T21:01:53.566Z,76.99
2019-06-07T21:04:22.786Z,76.80
2019-06-07T21:06:52.025Z,77.38
2019-06-07T21:09:21.265Z,77.33
2019-06-07T21:11:50.539Z,77.33
2019-06-07T21:14:21.254Z,78.10
2019-06-07T21:16:50.969Z,77.84
2019-06-07T21:19:20.227Z,77.79
2019-06-07T21:21:49.480Z,77.98
2019-06-07T21:24:18.709Z,78.34
2019-06-07T21:26:47.921Z,78.45
2019-06-07T21:29:17.151Z,78.57
2019-06-07T21:31:46.425Z,78.70
2019-06-07T21:34:16.019Z,79.06
2019-06-07T21:36:45.133Z,79.28
2019-06-07T21:39:16.483Z,79.52
2019-06-07T21:41:45.751Z,79.52
2019-06-07T21:44:14.957Z,79.60
2019-06-07T21:46:44.089Z,79.54
2019-06-07T21:49:13.201Z,79.39
2019-06-07T21:51:42.324Z,79.85
2019-06-07T21:54:14.347Z,79.75
2019-06-07T21:56:42.277Z,79.23
2019-06-07T21:59:11.471Z,79.23
2019-06-07T22:01:40.688Z,79.78
2019-06-07T22:04:09.892Z,79.78
2019-06-07T22:06:38.972Z,79.30
2019-06-07T22:09:09.975Z,77.78
2019-06-07T22:11:39.257Z,77.95
2019-06-07T22:14:08.545Z,77.95
2019-06-07T22:16:37.643Z,78.20
2019-06-07T22:19:06.760Z,77.85
2019-06-07T22:21:36.193Z,77.62
2019-06-07T22:24:06.748Z,77.01
2019-06-07T22:26:36.061Z,76.51
2019-06-07T22:29:06.315Z,76.51
2019-06-07T22:31:36.461Z,76.77
2019-06-07T22:34:08.795Z,76.31
2019-06-07T22:36:41.109Z,76.31
2019-06-07T22:39:11.596Z,77.06
2019-06-07T22:41:41.177Z,77.31
2019-06-07T22:44:10.730Z,76.77
2019-06-07T22:46:39.790Z,77.07
2019-06-07T22:49:09.226Z,77.16
2019-06-07T22:51:38.535Z,77.16
2019-06-07T22:54:07.650Z,78.40
2019-06-07T22:56:44.827Z,77.94
2019-06-07T22:59:16.992Z,78.31
2019-06-07T23:01:44.759Z,78.56
2019-06-07T23:04:14.573Z,79.13
2019-06-07T23:06:43.760Z,78.46
2019-06-07T23:09:12.930Z,78.93
2019-06-07T23:11:42.051Z,78.60
2019-06-07T23:14:11.261Z,78.06
2019-06-07T23:16:54.213Z,78.31
2019-06-07T23:19:11.960Z,77.98
2019-06-07T23:21:41.112Z,77.98
2019-06-07T23:24:10.175Z,77.07
2019-06-07T23:26:39.298Z,77.88
2019-06-07T23:29:08.433Z,78.42
2019-06-07T23:31:37.479Z,78.71
2019-06-07T23:34:06.663Z,78.07
2019-06-07T23:36:35.758Z,78.05
2019-06-07T23:39:07.324Z,78.47
2019-06-07T23:41:37.572Z,79.31
2019-06-07T23:44:06.759Z,79.31
2019-06-07T23:46:38.269Z,83.48
2019-06-07T23:49:07.328Z,83.48
2019-06-07T23:51:36.357Z,83.67
2019-06-07T23:54:05.529Z,84.01
2019-06-07T23:56:34.725Z,83.22
2019-06-07T23:59:03.913Z,82.57
